createdAt,value
2022-10-22T00:01:58.354Z,19.27
2022-10-22T00:04:41.578Z,19.19
2022-10-22T00:07:33.047Z,19.16
2022-10-22T00:10:12.311Z,19.17
2022-10-22T00:18:57.881Z,19.16
2022-10-22T00:21:49.478Z,19.18
2022-10-22T00:25:14.086Z,19.11
2022-10-22T00:27:55.108Z,19.08
2022-10-22T00:30:31.159Z,19.09
2022-10-22T00:33:09.256Z,19.06
2022-10-22T00:35:54.809Z,18.97
2022-10-22T00:51:17.113Z,18.89
2022-10-22T00:56:50.136Z,18.99
2022-10-22T00:59:26.785Z,19.07
2022-10-22T01:02:22.552Z,19.12
2022-10-22T01:04:52.463Z,19.14
2022-10-22T01:21:52.027Z,19.13
2022-10-22T01:24:49.345Z,19.07
2022-10-22T01:27:42.113Z,19.04
2022-10-22T01:30:42.490Z,19.05
2022-10-22T01:33:34.469Z,19.09
2022-10-22T01:36:13.916Z,19.09
2022-10-22T01:45:13.016Z,19.04
2022-10-22T01:48:17.663Z,18.99
2022-10-22T01:51:07.036Z,18.96
2022-10-22T01:53:52.365Z,18.93
2022-10-22T01:56:41.886Z,18.96
2022-10-22T01:59:40.820Z,18.99
2022-10-22T02:02:26.207Z,18.99
2022-10-22T02:05:03.859Z,19.02
2022-10-22T02:07:43.970Z,19.07
2022-10-22T02:10:40.966Z,19.08
2022-10-22T02:13:55.428Z,19.04
2022-10-22T02:16:44.678Z,18.93
2022-10-22T02:19:25.212Z,18.84
2022-10-22T02:22:03.468Z,18.74
2022-10-22T02:24:35.207Z,18.63
2022-10-22T02:27:14.769Z,18.61
2022-10-22T02:30:01.502Z,18.63
2022-10-22T02:32:42.997Z,18.65
2022-10-22T02:35:15.166Z,18.72
2022-10-22T02:37:46.012Z,18.78
2022-10-22T02:40:16.377Z,18.84
2022-10-22T02:42:45.379Z,18.83
2022-10-22T02:45:13.965Z,18.82
2022-10-22T02:47:42.756Z,18.76
2022-10-22T02:50:11.657Z,18.75
2022-10-22T02:52:40.538Z,18.72
2022-10-22T02:55:11.777Z,18.65
2022-10-22T02:57:40.788Z,18.62
2022-10-22T03:00:13.560Z,18.55
2022-10-22T03:02:44.438Z,18.46
2022-10-22T03:05:12.807Z,18.42
2022-10-22T03:07:41.330Z,18.40
2022-10-22T03:10:13.309Z,18.38
2022-10-22T03:12:44.550Z,18.36
2022-10-22T03:15:15.772Z,18.33
2022-10-22T03:17:44.443Z,18.28
2022-10-22T03:23:01.718Z,18.22
2022-10-22T03:25:38.393Z,18.15
2022-10-22T03:28:15.721Z,18.17
2022-10-22T03:30:47.299Z,18.11
2022-10-22T03:39:56.840Z,17.94
2022-10-22T03:42:27.499Z,17.93
2022-10-22T03:44:57.375Z,17.90
2022-10-22T03:47:26.775Z,17.87
2022-10-22T03:49:57.638Z,17.85
2022-10-22T03:52:29.876Z,17.83
2022-10-22T03:54:59.619Z,17.81
2022-10-22T03:57:30.760Z,17.81
2022-10-22T03:59:59.092Z,17.80
2022-10-22T04:02:40.445Z,17.82
2022-10-22T04:05:11.122Z,17.85
2022-10-22T04:07:40.808Z,17.85
2022-10-22T04:10:10.378Z,17.83
2022-10-22T04:13:01.555Z,17.80
2022-10-22T04:15:29.937Z,17.79
2022-10-22T04:18:07.723Z,17.72
2022-10-22T04:23:43.453Z,17.64
2022-10-22T04:26:17.970Z,17.57
2022-10-22T04:29:21.670Z,17.51
2022-10-22T04:32:01.675Z,17.46
2022-10-22T04:34:39.636Z,17.40
2022-10-22T04:40:11.405Z,17.31
2022-10-22T04:42:44.500Z,17.25
2022-10-22T04:45:19.993Z,17.23
2022-10-22T04:48:02.334Z,17.19
2022-10-22T04:50:41.238Z,17.15
2022-10-22T04:53:10.535Z,17.11
2022-10-22T04:55:47.464Z,17.07
2022-10-22T05:05:08.883Z,16.92
2022-10-22T05:08:03.569Z,16.87
2022-10-22T05:13:15.678Z,16.83
2022-10-22T05:15:44.968Z,16.81
2022-10-22T05:18:25.559Z,16.80
2022-10-22T05:21:20.077Z,16.78
2022-10-22T05:24:09.662Z,16.76
2022-10-22T05:29:58.708Z,16.70
2022-10-22T05:53:02.192Z,16.49
2022-10-22T06:04:21.721Z,16.42
2022-10-22T06:09:59.423Z,16.36
2022-10-22T06:12:55.821Z,16.37
2022-10-22T06:15:25.680Z,16.37
2022-10-22T06:46:53.987Z,16.12
2022-10-22T06:49:34.613Z,16.12
2022-10-22T06:55:10.246Z,16.12
2022-10-22T06:57:43.744Z,16.11
2022-10-22T07:03:40.759Z,16.13
2022-10-22T07:06:45.353Z,16.14
2022-10-22T07:09:39.255Z,16.14
2022-10-22T07:12:12.607Z,16.15
2022-10-22T07:14:41.331Z,16.18
2022-10-22T07:17:22.221Z,16.22
2022-10-22T07:19:55.057Z,16.23
2022-10-22T07:22:25.573Z,16.28
2022-10-22T07:28:56.811Z,16.32
2022-10-22T07:32:23.690Z,16.36
2022-10-22T07:35:22.224Z,16.42
2022-10-22T07:37:52.470Z,16.48
2022-10-22T08:12:16.006Z,17.32
2022-10-22T08:15:32.693Z,17.42
2022-10-22T08:45:06.728Z,18.76
2022-10-22T08:48:01.774Z,18.82
2022-10-22T08:50:37.575Z,18.96
2022-10-22T08:53:13.801Z,19.03
2022-10-22T08:55:53.427Z,19.19
2022-10-22T08:58:32.896Z,19.34
2022-10-22T09:01:03.093Z,19.47
2022-10-22T09:03:45.971Z,19.57
2022-10-22T09:06:22.522Z,19.68
2022-10-22T09:08:57.189Z,19.75
2022-10-22T09:11:29.852Z,19.88
2022-10-22T09:14:02.182Z,20.02
2022-10-22T09:16:40.954Z,20.18
2022-10-22T09:19:40.955Z,20.33
2022-10-22T09:22:22.082Z,20.46
2022-10-22T09:24:57.153Z,20.62
2022-10-22T09:27:29.974Z,20.73
2022-10-22T09:30:21.188Z,20.87
2022-10-22T09:32:57.804Z,20.99
2022-10-22T09:35:26.895Z,21.12
2022-10-22T09:38:02.214Z,21.19
2022-10-22T09:40:35.824Z,21.23
2022-10-22T09:43:05.891Z,21.25
2022-10-22T09:46:07.343Z,21.24
2022-10-22T09:52:12.461Z,21.22
2022-10-22T09:54:55.634Z,21.25
2022-10-22T09:57:43.685Z,21.33
2022-10-22T10:00:21.069Z,21.35
2022-10-22T10:02:51.223Z,21.39
2022-10-22T10:05:27.803Z,21.48
2022-10-22T10:07:57.631Z,21.55
2022-10-22T10:10:43.466Z,21.62
2022-10-22T10:13:33.369Z,21.71
2022-10-22T10:16:21.103Z,21.83
2022-10-22T10:19:07.607Z,21.91
2022-10-22T10:21:48.459Z,22.06
2022-10-22T10:24:29.862Z,22.23
2022-10-22T10:33:07.310Z,22.65
2022-10-22T10:36:18.581Z,22.76
2022-10-22T10:39:03.021Z,22.89
2022-10-22T10:41:53.102Z,23.00
2022-10-22T10:45:04.919Z,23.09
2022-10-22T10:48:03.213Z,23.20
2022-10-22T10:54:16.533Z,23.31
2022-10-22T10:56:52.834Z,23.37
2022-10-22T10:59:49.535Z,23.42
2022-10-22T11:03:04.007Z,23.41
2022-10-22T11:06:07.021Z,23.47
2022-10-22T11:08:39.013Z,23.50
2022-10-22T11:11:34.804Z,23.54
2022-10-22T11:14:25.309Z,23.60
2022-10-22T11:17:05.139Z,23.67
2022-10-22T11:19:51.017Z,23.74
2022-10-22T11:23:13.166Z,23.78
2022-10-22T11:25:47.464Z,23.79
2022-10-22T11:31:56.313Z,23.81
2022-10-22T11:43:40.572Z,23.58
2022-10-22T12:22:43.142Z,22.47
2022-10-22T13:26:00.406Z,23.47
2022-10-22T13:49:20.516Z,23.43
2022-10-22T13:51:59.644Z,23.46
2022-10-22T13:57:24.569Z,23.42
2022-10-22T13:59:54.980Z,23.50
2022-10-22T14:02:25.230Z,23.49
2022-10-22T14:04:56.392Z,23.56
2022-10-22T14:07:30.607Z,23.53
2022-10-22T14:10:25.758Z,23.52
2022-10-22T14:12:58.857Z,23.47
2022-10-22T14:15:37.443Z,23.36
2022-10-22T14:18:10.287Z,23.35
2022-10-22T14:20:45.546Z,23.34
2022-10-22T14:23:28.367Z,23.24
2022-10-22T14:25:58.881Z,23.27
2022-10-22T14:28:27.425Z,23.29
2022-10-22T14:31:00.736Z,23.36
2022-10-22T14:33:32.512Z,23.36
2022-10-22T14:36:03.099Z,23.35
2022-10-22T14:38:31.715Z,23.32
2022-10-22T14:41:01.665Z,23.33
2022-10-22T14:43:32.774Z,23.33
2022-10-22T14:46:01.945Z,23.33
2022-10-22T14:48:30.693Z,23.38
2022-10-22T14:50:58.970Z,23.41
2022-10-22T14:53:28.647Z,23.41
2022-10-22T14:55:59.788Z,23.36
2022-10-22T14:58:28.289Z,23.26
2022-10-22T15:00:56.481Z,23.19
2022-10-22T15:03:28.088Z,23.14
2022-10-22T15:05:56.598Z,23.09
2022-10-22T15:08:25.587Z,23.00
2022-10-22T15:11:03.470Z,22.90
2022-10-22T15:13:32.702Z,22.78
2022-10-22T15:16:01.588Z,22.67
2022-10-22T15:18:30.268Z,22.55
2022-10-22T15:20:59.991Z,22.44
2022-10-22T15:23:28.622Z,22.42
2022-10-22T15:25:57.341Z,22.39
2022-10-22T15:28:27.512Z,22.33
2022-10-22T15:30:56.935Z,22.37
2022-10-22T15:33:25.141Z,22.27
2022-10-22T15:35:53.515Z,22.27
2022-10-22T15:38:22.592Z,22.24
2022-10-22T15:40:50.984Z,22.18
2022-10-22T15:43:19.148Z,22.05
2022-10-22T15:46:06.916Z,21.96
2022-10-22T15:48:35.044Z,21.87
2022-10-22T15:51:08.966Z,21.86
2022-10-22T15:53:37.460Z,21.83
2022-10-22T15:56:06.370Z,21.82
2022-10-22T15:58:34.964Z,21.78
2022-10-22T16:01:09.213Z,21.74
2022-10-22T16:03:38.287Z,21.71
2022-10-22T16:06:08.796Z,21.70
2022-10-22T16:08:44.584Z,21.68
2022-10-22T16:11:13.046Z,21.72
2022-10-22T16:13:44.482Z,21.72
2022-10-22T16:16:16.770Z,21.77
2022-10-22T16:18:46.944Z,21.79
2022-10-22T16:21:19.454Z,21.85
2022-10-22T16:23:50.514Z,21.83
2022-10-22T16:26:47.006Z,21.89
2022-10-22T16:32:09.739Z,21.90
2022-10-22T16:34:38.385Z,21.88
2022-10-22T16:37:10.280Z,21.97
2022-10-22T16:39:38.975Z,22.13
2022-10-22T16:42:07.307Z,22.25
2022-10-22T16:44:35.438Z,22.42
2022-10-22T16:47:05.002Z,22.51
2022-10-22T16:49:33.404Z,22.57
2022-10-22T16:52:01.364Z,22.50
2022-10-22T16:54:29.669Z,22.47
2022-10-22T16:56:57.783Z,22.38
2022-10-22T16:59:25.858Z,22.27
2022-10-22T17:01:54.815Z,22.16
2022-10-22T17:04:24.358Z,22.06
2022-10-22T17:06:52.333Z,21.96
2022-10-22T17:09:20.480Z,21.82
2022-10-22T17:11:48.635Z,21.73
2022-10-22T17:14:16.651Z,21.62
2022-10-22T17:16:44.938Z,21.52
2022-10-22T17:19:15.976Z,21.44
2022-10-22T17:21:45.839Z,21.32
2022-10-22T17:24:14.074Z,21.23
2022-10-22T17:26:42.045Z,21.19
2022-10-22T17:29:10.133Z,21.11
2022-10-22T17:31:39.903Z,21.02
2022-10-22T17:34:11.339Z,20.98
2022-10-22T17:36:39.376Z,20.95
2022-10-22T17:39:28.979Z,20.89
2022-10-22T17:41:57.310Z,20.89
2022-10-22T17:44:27.726Z,20.81
2022-10-22T17:46:56.455Z,20.83
2022-10-22T17:49:24.563Z,20.77
2022-10-22T17:51:52.634Z,20.70
2022-10-22T17:54:22.284Z,20.68
2022-10-22T17:56:50.403Z,20.72
2022-10-22T17:59:19.128Z,20.67
2022-10-22T18:01:47.868Z,20.66
2022-10-22T18:04:18.179Z,20.68
2022-10-22T18:06:47.387Z,20.70
2022-10-22T18:09:18.608Z,20.68
2022-10-22T18:11:49.606Z,20.64
2022-10-22T18:14:19.306Z,20.66
2022-10-22T18:16:47.915Z,20.63
2022-10-22T18:19:18.441Z,20.62
2022-10-22T18:21:46.862Z,20.59
2022-10-22T18:24:16.131Z,20.57
2022-10-22T18:26:44.725Z,20.60
2022-10-22T18:29:17.485Z,20.56
2022-10-22T18:31:48.384Z,20.59
2022-10-22T18:34:19.021Z,20.61
2022-10-22T18:36:49.874Z,20.63
2022-10-22T18:39:18.263Z,20.62
2022-10-22T18:41:46.339Z,20.63
2022-10-22T18:44:17.183Z,20.63
2022-10-22T18:46:45.262Z,20.64
2022-10-22T18:49:19.879Z,20.65
2022-10-22T18:51:52.894Z,20.67
2022-10-22T18:54:23.859Z,20.66
2022-10-22T18:56:52.587Z,20.68
2022-10-22T18:59:24.560Z,20.65
2022-10-22T19:01:54.034Z,20.66
2022-10-22T19:04:22.240Z,20.71
2022-10-22T19:06:50.569Z,20.73
2022-10-22T19:09:18.785Z,20.73
2022-10-22T19:11:47.332Z,20.72
2022-10-22T19:14:19.459Z,20.71
2022-10-22T19:16:49.843Z,20.74
2022-10-22T19:19:20.334Z,20.71
2022-10-22T19:21:49.257Z,20.68
2022-10-22T19:24:18.830Z,20.73
2022-10-22T19:26:48.714Z,20.76
2022-10-22T19:29:18.775Z,20.73
2022-10-22T19:31:50.624Z,20.75
2022-10-22T19:34:18.932Z,20.74
2022-10-22T19:36:47.114Z,20.74
2022-10-22T19:39:16.748Z,20.70
2022-10-22T19:41:45.184Z,20.70
2022-10-22T19:44:13.319Z,20.68
2022-10-22T19:46:42.710Z,20.71
2022-10-22T19:49:12.597Z,20.70
2022-10-22T19:51:40.684Z,20.69
2022-10-22T19:54:19.068Z,20.72
2022-10-22T19:56:48.388Z,20.71
2022-10-22T19:59:16.609Z,20.68
2022-10-22T20:01:44.954Z,20.70
2022-10-22T20:04:17.320Z,20.70
2022-10-22T20:06:45.362Z,20.69
2022-10-22T20:09:14.405Z,20.68
2022-10-22T20:11:42.695Z,20.64
2022-10-22T20:14:10.780Z,20.65
2022-10-22T20:16:38.747Z,20.65
2022-10-22T20:19:08.798Z,20.65
2022-10-22T20:21:38.442Z,20.62
2022-10-22T20:24:06.689Z,20.61
2022-10-22T20:26:35.657Z,20.63
2022-10-22T20:29:03.672Z,20.62
2022-10-22T20:31:33.171Z,20.59
2022-10-22T20:34:02.577Z,20.58
2022-10-22T20:36:32.292Z,20.56
2022-10-22T20:39:05.777Z,20.58
2022-10-22T20:41:37.874Z,20.60
2022-10-22T20:44:06.223Z,20.57
2022-10-22T20:46:35.017Z,20.61
2022-10-22T20:49:05.651Z,20.59
2022-10-22T20:51:33.714Z,20.58
2022-10-22T20:54:03.229Z,20.59
2022-10-22T20:56:31.398Z,20.59
2022-10-22T20:59:05.403Z,20.64
2022-10-22T21:01:35.379Z,20.61
2022-10-22T21:04:03.478Z,20.57
2022-10-22T21:06:31.550Z,20.59
2022-10-22T21:08:59.519Z,20.59
2022-10-22T21:11:29.022Z,20.57
2022-10-22T21:13:57.073Z,20.60
2022-10-22T21:16:25.337Z,20.62
2022-10-22T21:18:53.303Z,20.59
2022-10-22T21:21:21.264Z,20.56
2022-10-22T21:23:50.287Z,20.58
2022-10-22T21:26:18.721Z,20.60
2022-10-22T21:28:48.501Z,20.60
2022-10-22T21:31:22.090Z,20.62
2022-10-22T21:33:51.241Z,20.63
2022-10-22T21:36:23.025Z,20.63
2022-10-22T21:38:52.167Z,20.63
2022-10-22T21:41:21.965Z,20.62
2022-10-22T21:43:51.748Z,20.61
2022-10-22T21:46:21.447Z,20.63
2022-10-22T21:48:54.288Z,20.64
2022-10-22T21:51:24.215Z,20.62
2022-10-22T21:56:22.437Z,20.63
2022-10-22T21:58:52.111Z,20.60
2022-10-22T22:01:20.525Z,20.58
2022-10-22T22:03:50.322Z,20.59
2022-10-22T22:06:21.416Z,20.57
2022-10-22T22:08:51.350Z,20.56
2022-10-22T22:11:21.423Z,20.55
2022-10-22T22:13:50.012Z,20.55
2022-10-22T22:16:27.032Z,20.53
2022-10-22T22:18:57.010Z,20.50
2022-10-22T22:21:25.039Z,20.44
2022-10-22T22:23:52.981Z,20.40
2022-10-22T22:26:26.729Z,20.41
2022-10-22T22:28:57.823Z,20.36
2022-10-22T22:31:29.781Z,20.31
2022-10-22T22:34:02.268Z,20.33
2022-10-22T22:36:34.629Z,20.35
2022-10-22T22:39:03.237Z,20.35
2022-10-22T22:41:31.262Z,20.34
2022-10-22T22:43:59.361Z,20.35
2022-10-22T22:46:28.938Z,20.38
2022-10-22T22:48:57.167Z,20.39
2022-10-22T22:51:25.716Z,20.41
2022-10-22T22:53:53.995Z,20.45
2022-10-22T22:56:24.036Z,20.46
2022-10-22T22:58:52.427Z,20.49
2022-10-22T23:01:22.697Z,20.50
2022-10-22T23:03:55.510Z,20.52
2022-10-22T23:06:23.904Z,20.55
2022-10-22T23:08:52.999Z,20.54
2022-10-22T23:11:22.862Z,20.55
2022-10-22T23:13:53.947Z,20.58
2022-10-22T23:16:24.944Z,20.60
2022-10-22T23:18:55.901Z,20.61
2022-10-22T23:21:25.942Z,20.64
2022-10-22T23:23:56.048Z,20.62
2022-10-22T23:26:27.102Z,20.64
2022-10-22T23:28:55.826Z,20.69
2022-10-22T23:31:23.835Z,20.67
2022-10-22T23:33:51.825Z,20.69
2022-10-22T23:36:21.637Z,20.71
2022-10-22T23:38:50.343Z,20.67
2022-10-22T23:41:19.331Z,20.72
2022-10-22T23:43:47.351Z,20.72
2022-10-22T23:46:15.761Z,20.73
2022-10-22T23:48:44.000Z,20.73
2022-10-22T23:51:14.636Z,20.74
2022-10-22T23:53:45.095Z,20.74
2022-10-22T23:56:16.588Z,20.76
2022-10-22T23:58:45.251Z,20.71
